sensor_id;sensor_type;location;lat;lon;timestamp;pressure;altitude;pressure_sealevel;temperature;humidity
50011;BME280;35899;50.352;19.390;2024-03-23T00:56:04;97138.65;;;9.10;94.79
50011;BME280;35899;50.352;19.390;2024-03-23T00:58:32;97140.84;;;9.08;94.65
50011;BME280;35899;50.352;19.390;2024-03-23T01:01:00;97134.98;;;9.06;94.91
50011;BME280;35899;50.352;19.390;2024-03-23T01:03:27;97132.72;;;9.04;94.72
50011;BME280;35899;50.352;19.390;2024-03-23T01:05:59;97128.86;;;9.03;94.97
50011;BME280;35899;50.352;19.390;2024-03-23T01:08:27;97128.52;;;9.00;95.21
50011;BME280;35899;50.352;19.390;2024-03-23T01:11:01;97127.44;;;8.98;95.51
50011;BME280;35899;50.352;19.390;2024-03-23T01:13:29;97126.17;;;8.96;95.63
50011;BME280;35899;50.352;19.390;2024-03-23T01:15:57;97128.34;;;8.95;95.89
50011;BME280;35899;50.352;19.390;2024-03-23T01:18:25;97122.85;;;8.92;95.71
50011;BME280;35899;50.352;19.390;2024-03-23T01:20:53;97117.70;;;8.90;95.91
50011;BME280;35899;50.352;19.390;2024-03-23T01:23:20;97117.89;;;8.88;96.44
50011;BME280;35899;50.352;19.390;2024-03-23T01:25:54;97117.67;;;8.84;96.68
50011;BME280;35899;50.352;19.390;2024-03-23T01:28:22;97110.70;;;8.80;96.52
50011;BME280;35899;50.352;19.390;2024-03-23T01:30:50;97106.12;;;8.77;96.92
50011;BME280;35899;50.352;19.390;2024-03-23T01:33:17;97103.58;;;8.72;97.17
50011;BME280;35899;50.352;19.390;2024-03-23T01:35:45;97101.98;;;8.68;97.65
50011;BME280;35899;50.352;19.390;2024-03-23T01:38:13;97096.29;;;8.63;97.88
50011;BME280;35899;50.352;19.390;2024-03-23T01:40:40;97094.02;;;8.59;98.22
50011;BME280;35899;50.352;19.390;2024-03-23T01:43:08;97083.57;;;8.56;98.56
50011;BME280;35899;50.352;19.390;2024-03-23T01:45:36;97082.91;;;8.53;98.97
50011;BME280;35899;50.352;19.390;2024-03-23T01:48:04;97088.27;;;8.51;99.08
50011;BME280;35899;50.352;19.390;2024-03-23T01:50:32;97082.58;;;8.48;99.59
50011;BME280;35899;50.352;19.390;2024-03-23T01:53:02;97081.02;;;8.44;99.85
50011;BME280;35899;50.352;19.390;2024-03-23T01:55:30;97083.13;;;8.40;99.92
50011;BME280;35899;50.352;19.390;2024-03-23T01:57:58;97079.46;;;8.38;99.99
50011;BME280;35899;50.352;19.390;2024-03-23T02:00:26;97081.15;;;8.37;100.00
50011;BME280;35899;50.352;19.390;2024-03-23T02:02:54;97079.18;;;8.36;100.00
50011;BME280;35899;50.352;19.390;2024-03-23T02:05:21;97073.67;;;8.35;100.00
50011;BME280;35899;50.352;19.390;2024-03-23T02:07:50;97068.84;;;8.33;100.00
50011;BME280;35899;50.352;19.390;2024-03-23T02:10:18;97063.09;;;8.32;100.00
50011;BME280;35899;50.352;19.390;2024-03-23T02:12:46;97060.39;;;8.31;100.00
50011;BME280;35899;50.352;19.390;2024-03-23T02:15:13;97058.19;;;8.30;100.00
50011;BME280;35899;50.352;19.390;2024-03-23T02:17:41;97052.27;;;8.29;100.00
50011;BME280;35899;50.352;19.390;2024-03-23T02:20:09;97049.98;;;8.27;100.00
50011;BME280;35899;50.352;19.390;2024-03-23T02:22:39;97049.14;;;8.24;100.00
50011;BME280;35899;50.352;19.390;2024-03-23T02:25:07;97039.59;;;8.23;100.00
50011;BME280;35899;50.352;19.390;2024-03-23T02:27:35;97035.27;;;8.21;100.00
50011;BME280;35899;50.352;19.390;2024-03-23T02:30:03;97028.05;;;8.18;100.00
50011;BME280;35899;50.352;19.390;2024-03-23T02:32:31;97030.66;;;8.16;100.00
50011;BME280;35899;50.352;19.390;2024-03-23T02:34:59;97034.84;;;8.15;100.00
50011;BME280;35899;50.352;19.390;2024-03-23T02:37:26;97032.71;;;8.16;100.00
50011;BME280;35899;50.352;19.390;2024-03-23T02:39:54;97038.05;;;8.16;100.00
50011;BME280;35899;50.352;19.390;2024-03-23T02:42:22;97038.98;;;8.15;100.00
50011;BME280;35899;50.352;19.390;2024-03-23T02:44:49;97039.40;;;8.14;100.00
50011;BME280;35899;50.352;19.390;2024-03-23T02:47:17;97038.27;;;8.13;100.00
50011;BME280;35899;50.352;19.390;2024-03-23T02:49:44;97030.77;;;8.12;100.00
50011;BME280;35899;50.352;19.390;2024-03-23T02:52:12;97021.03;;;8.11;100.00
50011;BME280;35899;50.352;19.390;2024-03-23T02:54:39;97014.90;;;8.10;100.00
50011;BME280;35899;50.352;19.390;2024-03-23T02:57:07;97008.45;;;8.11;100.00
50011;BME280;35899;50.352;19.390;2024-03-23T02:59:35;97012.64;;;8.10;100.00
50011;BME280;35899;50.352;19.390;2024-03-23T03:02:02;97026.37;;;8.09;100.00
50011;BME280;35899;50.352;19.390;2024-03-23T03:04:31;97018.83;;;8.06;100.00
50011;BME280;35899;50.352;19.390;2024-03-23T03:06:58;97016.65;;;8.02;100.00
50011;BME280;35899;50.352;19.390;2024-03-23T03:09:26;97008.83;;;8.01;100.00
50011;BME280;35899;50.352;19.390;2024-03-23T03:11:54;97000.80;;;8.00;100.00
50011;BME280;35899;50.352;19.390;2024-03-23T03:14:21;96999.31;;;7.97;100.00
50011;BME280;35899;50.352;19.390;2024-03-23T03:16:49;96997.46;;;7.94;100.00
50011;BME280;35899;50.352;19.390;2024-03-23T03:19:17;97002.05;;;7.90;100.00
50011;BME280;35899;50.352;19.390;2024-03-23T03:21:45;96981.73;;;7.88;100.00
50011;BME280;35899;50.352;19.390;2024-03-23T03:24:12;96983.86;;;7.85;100.00
50011;BME280;35899;50.352;19.390;2024-03-23T03:26:40;96980.81;;;7.84;100.00
50011;BME280;35899;50.352;19.390;2024-03-23T03:29:07;96974.42;;;7.82;100.00
50011;BME280;35899;50.352;19.390;2024-03-23T03:31:35;96975.69;;;7.81;100.00
50011;BME280;35899;50.352;19.390;2024-03-23T03:34:03;96975.70;;;7.79;100.00
50011;BME280;35899;50.352;19.390;2024-03-23T03:36:31;96979.17;;;7.78;100.00
50011;BME280;35899;50.352;19.390;2024-03-23T03:38:58;96980.17;;;7.78;100.00
50011;BME280;35899;50.352;19.390;2024-03-23T03:41:26;96984.77;;;7.79;100.00
50011;BME280;35899;50.352;19.390;2024-03-23T03:43:54;96986.20;;;7.81;100.00
50011;BME280;35899;50.352;19.390;2024-03-23T03:46:21;96988.66;;;7.82;100.00
50011;BME280;35899;50.352;19.390;2024-03-23T03:48:49;96983.31;;;7.83;100.00
50011;BME280;35899;50.352;19.390;2024-03-23T03:51:17;96981.63;;;7.80;100.00
50011;BME280;35899;50.352;19.390;2024-03-23T03:53:44;96975.29;;;7.77;100.00
50011;BME280;35899;50.352;19.390;2024-03-23T03:56:12;96976.83;;;7.73;100.00
50011;BME280;35899;50.352;19.390;2024-03-23T03:58:40;96969.84;;;7.69;100.00
50011;BME280;35899;50.352;19.390;2024-03-23T04:01:08;96969.17;;;7.67;100.00
50011;BME280;35899;50.352;19.390;2024-03-23T04:03:35;96961.66;;;7.66;100.00
50011;BME280;35899;50.352;19.390;2024-03-23T04:06:03;96954.80;;;7.65;100.00
50011;BME280;35899;50.352;19.390;2024-03-23T04:08:31;96959.80;;;7.66;100.00
50011;BME280;35899;50.352;19.390;2024-03-23T04:10:59;96969.02;;;7.64;100.00
50011;BME280;35899;50.352;19.390;2024-03-23T04:13:26;96973.16;;;7.64;100.00
50011;BME280;35899;50.352;19.390;2024-03-23T04:15:55;96974.23;;;7.64;100.00
50011;BME280;35899;50.352;19.390;2024-03-23T04:18:23;96970.03;;;7.64;100.00
50011;BME280;35899;50.352;19.390;2024-03-23T04:20:51;96965.04;;;7.62;100.00
50011;BME280;35899;50.352;19.390;2024-03-23T04:23:19;96968.96;;;7.63;100.00
50011;BME280;35899;50.352;19.390;2024-03-23T04:25:46;96970.48;;;7.63;100.00
50011;BME280;35899;50.352;19.390;2024-03-23T04:28:14;96969.44;;;7.63;100.00
50011;BME280;35899;50.352;19.390;2024-03-23T04:30:42;96966.50;;;7.63;100.00
50011;BME280;35899;50.352;19.390;2024-03-23T04:33:09;96947.41;;;7.61;100.00
50011;BME280;35899;50.352;19.390;2024-03-23T04:35:37;96948.71;;;7.57;100.00
50011;BME280;35899;50.352;19.390;2024-03-23T04:38:05;96943.70;;;7.55;100.00
50011;BME280;35899;50.352;19.390;2024-03-23T04:40:32;96933.80;;;7.52;100.00
50011;BME280;35899;50.352;19.390;2024-03-23T04:43:00;96933.04;;;7.50;100.00
50011;BME280;35899;50.352;19.390;2024-03-23T04:45:28;96929.17;;;7.46;100.00
50011;BME280;35899;50.352;19.390;2024-03-23T04:47:56;96924.35;;;7.44;100.00
50011;BME280;35899;50.352;19.390;2024-03-23T04:50:23;96919.20;;;7.41;100.00
50011;BME280;35899;50.352;19.390;2024-03-23T04:52:51;96909.00;;;7.40;100.00
50011;BME280;35899;50.352;19.390;2024-03-23T04:55:19;96904.69;;;7.38;100.00
50011;BME280;35899;50.352;19.390;2024-03-23T04:57:47;96901.04;;;7.36;100.00
50011;BME280;35899;50.352;19.390;2024-03-23T05:00:15;96900.09;;;7.34;100.00
50011;BME280;35899;50.352;19.390;2024-03-23T05:02:44;96894.90;;;7.35;100.00
50011;BME280;35899;50.352;19.390;2024-03-23T05:05:12;96893.91;;;7.37;100.00
50011;BME280;35899;50.352;19.390;2024-03-23T05:07:40;96897.07;;;7.38;100.00
50011;BME280;35899;50.352;19.390;2024-03-23T05:10:09;96899.22;;;7.39;100.00
50011;BME280;35899;50.352;19.390;2024-03-23T05:12:37;96898.70;;;7.42;100.00
50011;BME280;35899;50.352;19.390;2024-03-23T05:15:06;96896.94;;;7.45;100.00
50011;BME280;35899;50.352;19.390;2024-03-23T05:17:34;96898.95;;;7.48;100.00
50011;BME280;35899;50.352;19.390;2024-03-23T05:20:02;96898.03;;;7.51;100.00
50011;BME280;35899;50.352;19.390;2024-03-23T05:22:29;96892.23;;;7.53;100.00
50011;BME280;35899;50.352;19.390;2024-03-23T05:24:57;96896.22;;;7.54;100.00
50011;BME280;35899;50.352;19.390;2024-03-23T05:27:25;96890.64;;;7.55;100.00
50011;BME280;35899;50.352;19.390;2024-03-23T05:29:52;96890.01;;;7.57;100.00
50011;BME280;35899;50.352;19.390;2024-03-23T05:32:20;96884.29;;;7.58;100.00
50011;BME280;35899;50.352;19.390;2024-03-23T05:34:48;96887.58;;;7.60;100.00
50011;BME280;35899;50.352;19.390;2024-03-23T05:37:15;96885.56;;;7.63;100.00
50011;BME280;35899;50.352;19.390;2024-03-23T05:39:43;96883.88;;;7.68;100.00
50011;BME280;35899;50.352;19.390;2024-03-23T05:42:11;96885.01;;;7.71;100.00
50011;BME280;35899;50.352;19.390;2024-03-23T05:44:46;96882.73;;;7.73;100.00
50011;BME280;35899;50.352;19.390;2024-03-23T05:47:14;96882.50;;;7.79;100.00
50011;BME280;35899;50.352;19.390;2024-03-23T05:49:42;96873.16;;;7.84;100.00
50011;BME280;35899;50.352;19.390;2024-03-23T05:52:10;96868.80;;;7.90;100.00
50011;BME280;35899;50.352;19.390;2024-03-23T05:54:37;96869.66;;;7.94;100.00
50011;BME280;35899;50.352;19.390;2024-03-23T05:57:05;96866.63;;;7.98;100.00
50011;BME280;35899;50.352;19.390;2024-03-23T05:59:33;96868.24;;;8.01;100.00
50011;BME280;35899;50.352;19.390;2024-03-23T06:02:01;96872.04;;;8.03;100.00
50011;BME280;35899;50.352;19.390;2024-03-23T06:04:29;96865.09;;;8.04;100.00
50011;BME280;35899;50.352;19.390;2024-03-23T06:06:56;96861.29;;;8.05;100.00
50011;BME280;35899;50.352;19.390;2024-03-23T06:09:24;96859.67;;;8.05;100.00
50011;BME280;35899;50.352;19.390;2024-03-23T06:11:52;96856.44;;;8.07;100.00
50011;BME280;35899;50.352;19.390;2024-03-23T06:14:20;96860.50;;;8.10;100.00
50011;BME280;35899;50.352;19.390;2024-03-23T06:16:48;96863.86;;;8.13;100.00
50011;BME280;35899;50.352;19.390;2024-03-23T06:19:15;96863.31;;;8.18;100.00
50011;BME280;35899;50.352;19.390;2024-03-23T06:21:44;96861.80;;;8.22;100.00
50011;BME280;35899;50.352;19.390;2024-03-23T06:24:12;96861.16;;;8.29;100.00
50011;BME280;35899;50.352;19.390;2024-03-23T06:26:40;96859.00;;;8.34;100.00
50011;BME280;35899;50.352;19.390;2024-03-23T06:29:07;96859.05;;;8.38;100.00
50011;BME280;35899;50.352;19.390;2024-03-23T06:31:35;96850.59;;;8.40;100.00
50011;BME280;35899;50.352;19.390;2024-03-23T06:34:03;96819.52;;;8.41;100.00
50011;BME280;35899;50.352;19.390;2024-03-23T06:36:31;96816.73;;;8.41;100.00
50011;BME280;35899;50.352;19.390;2024-03-23T06:38:58;96821.64;;;8.43;100.00
50011;BME280;35899;50.352;19.390;2024-03-23T06:41:26;96821.95;;;8.47;100.00
50011;BME280;35899;50.352;19.390;2024-03-23T06:43:54;96821.08;;;8.54;100.00
50011;BME280;35899;50.352;19.390;2024-03-23T06:46:24;96816.40;;;8.63;100.00
50011;BME280;35899;50.352;19.390;2024-03-23T06:48:51;96821.63;;;8.73;100.00
50011;BME280;35899;50.352;19.390;2024-03-23T06:51:19;96819.98;;;8.83;100.00
50011;BME280;35899;50.352;19.390;2024-03-23T06:53:46;96816.08;;;8.93;100.00
50011;BME280;35899;50.352;19.390;2024-03-23T06:56:14;96812.04;;;9.02;100.00
50011;BME280;35899;50.352;19.390;2024-03-23T06:58:42;96818.90;;;9.13;100.00
50011;BME280;35899;50.352;19.390;2024-03-23T07:01:10;96817.61;;;9.25;100.00
50011;BME280;35899;50.352;19.390;2024-03-23T07:03:41;96817.50;;;9.37;100.00
50011;BME280;35899;50.352;19.390;2024-03-23T07:06:09;96806.65;;;9.47;100.00
50011;BME280;35899;50.352;19.390;2024-03-23T07:08:37;96807.64;;;9.60;100.00
50011;BME280;35899;50.352;19.390;2024-03-23T07:11:05;96808.06;;;9.73;100.00
50011;BME280;35899;50.352;19.390;2024-03-23T07:13:33;96807.16;;;9.82;100.00
50011;BME280;35899;50.352;19.390;2024-03-23T07:16:00;96811.55;;;9.91;100.00
50011;BME280;35899;50.352;19.390;2024-03-23T07:18:28;96807.34;;;10.02;100.00
50011;BME280;35899;50.352;19.390;2024-03-23T07:20:56;96804.20;;;10.14;100.00
50011;BME280;35899;50.352;19.390;2024-03-23T07:23:25;96804.57;;;10.35;100.00
50011;BME280;35899;50.352;19.390;2024-03-23T07:26:03;96800.61;;;10.58;100.00
50011;BME280;35899;50.352;19.390;2024-03-23T07:28:34;96795.06;;;10.84;100.00
50011;BME280;35899;50.352;19.390;2024-03-23T07:31:07;96788.82;;;11.03;100.00
50011;BME280;35899;50.352;19.390;2024-03-23T07:33:36;96784.89;;;11.10;100.00
50011;BME280;35899;50.352;19.390;2024-03-23T07:36:04;96786.41;;;11.16;100.00
50011;BME280;35899;50.352;19.390;2024-03-23T07:38:34;96784.90;;;11.24;100.00
50011;BME280;35899;50.352;19.390;2024-03-23T07:41:03;96781.31;;;11.29;100.00
50011;BME280;35899;50.352;19.390;2024-03-23T07:43:31;96778.23;;;11.38;100.00
50011;BME280;35899;50.352;19.390;2024-03-23T07:45:59;96779.15;;;11.51;100.00
50011;BME280;35899;50.352;19.390;2024-03-23T07:48:28;96776.46;;;11.68;100.00
50011;BME280;35899;50.352;19.390;2024-03-23T07:51:06;96772.92;;;11.86;100.00
50011;BME280;35899;50.352;19.390;2024-03-23T07:53:36;96773.90;;;11.98;100.00
50011;BME280;35899;50.352;19.390;2024-03-23T07:56:08;96770.00;;;12.05;100.00
50011;BME280;35899;50.352;19.390;2024-03-23T07:58:37;96767.04;;;12.12;100.00
50011;BME280;35899;50.352;19.390;2024-03-23T08:01:15;96757.86;;;12.18;100.00
50011;BME280;35899;50.352;19.390;2024-03-23T08:03:44;96757.46;;;12.25;100.00
50011;BME280;35899;50.352;19.390;2024-03-23T08:06:14;96753.02;;;12.41;100.00
50011;BME280;35899;50.352;19.390;2024-03-23T08:08:44;96743.80;;;12.63;100.00
50011;BME280;35899;50.352;19.390;2024-03-23T08:11:13;96744.73;;;12.77;100.00
50011;BME280;35899;50.352;19.390;2024-03-23T08:13:42;96738.93;;;12.88;100.00
50011;BME280;35899;50.352;19.390;2024-03-23T08:16:10;96727.00;;;12.93;100.00
50011;BME280;35899;50.352;19.390;2024-03-23T08:18:38;96724.14;;;12.97;100.00
50011;BME280;35899;50.352;19.390;2024-03-23T08:21:06;96721.99;;;12.98;100.00
50011;BME280;35899;50.352;19.390;2024-03-23T08:23:35;96722.75;;;13.02;100.00
50011;BME280;35899;50.352;19.390;2024-03-23T08:26:04;96710.20;;;13.15;100.00
50011;BME280;35899;50.352;19.390;2024-03-23T08:28:32;96705.05;;;13.30;100.00
50011;BME280;35899;50.352;19.390;2024-03-23T08:31:02;96704.70;;;13.42;99.89
50011;BME280;35899;50.352;19.390;2024-03-23T08:33:30;96705.50;;;13.57;99.07
50011;BME280;35899;50.352;19.390;2024-03-23T08:36:06;96703.28;;;13.74;98.49
50011;BME280;35899;50.352;19.390;2024-03-23T08:38:35;96698.80;;;13.88;98.08
50011;BME280;35899;50.352;19.390;2024-03-23T08:41:05;96690.28;;;13.97;97.59
50011;BME280;35899;50.352;19.390;2024-03-23T08:43:35;96690.69;;;14.00;95.72
50011;BME280;35899;50.352;19.390;2024-03-23T08:46:14;96681.83;;;14.00;93.25
50011;BME280;35899;50.352;19.390;2024-03-23T08:48:45;96674.73;;;14.01;92.42
50011;BME280;35899;50.352;19.390;2024-03-23T08:51:14;96665.55;;;14.05;90.79
50011;BME280;35899;50.352;19.390;2024-03-23T08:53:42;96663.48;;;14.17;90.88
50011;BME280;35899;50.352;19.390;2024-03-23T08:56:11;96655.67;;;14.34;90.89
50011;BME280;35899;50.352;19.390;2024-03-23T08:58:39;96650.10;;;14.50;91.32
50011;BME280;35899;50.352;19.390;2024-03-23T09:01:13;96649.43;;;14.65;89.30
50011;BME280;35899;50.352;19.390;2024-03-23T09:03:42;96638.77;;;14.75;88.58
50011;BME280;35899;50.352;19.390;2024-03-23T09:06:13;96627.67;;;14.97;88.86
50011;BME280;35899;50.352;19.390;2024-03-23T09:08:41;96629.30;;;15.19;87.75
50011;BME280;35899;50.352;19.390;2024-03-23T09:11:13;96624.88;;;15.26;82.13
50011;BME280;35899;50.352;19.390;2024-03-23T09:13:41;96624.11;;;15.28;78.88
50011;BME280;35899;50.352;19.390;2024-03-23T09:16:08;96617.66;;;15.33;78.71
50011;BME280;35899;50.352;19.390;2024-03-23T09:18:36;96611.77;;;15.50;78.74
50011;BME280;35899;50.352;19.390;2024-03-23T09:21:11;96608.17;;;15.71;77.38
50011;BME280;35899;50.352;19.390;2024-03-23T09:23:39;96595.77;;;15.89;76.13
50011;BME280;35899;50.352;19.390;2024-03-23T09:26:07;96594.98;;;15.97;76.00
50011;BME280;35899;50.352;19.390;2024-03-23T09:28:34;96596.55;;;16.03;74.93
50011;BME280;35899;50.352;19.390;2024-03-23T09:31:06;96595.92;;;16.00;72.79
50011;BME280;35899;50.352;19.390;2024-03-23T09:33:34;96583.06;;;16.01;73.25
50011;BME280;35899;50.352;19.390;2024-03-23T09:36:06;96582.85;;;16.06;73.72
50011;BME280;35899;50.352;19.390;2024-03-23T09:38:34;96576.56;;;16.15;72.93
50011;BME280;35899;50.352;19.390;2024-03-23T09:41:07;96577.09;;;16.12;71.25
50011;BME280;35899;50.352;19.390;2024-03-23T09:43:35;96569.40;;;16.11;69.06
50011;BME280;35899;50.352;19.390;2024-03-23T09:46:03;96557.02;;;16.26;69.29
50011;BME280;35899;50.352;19.390;2024-03-23T09:48:31;96549.11;;;16.58;69.92
50011;BME280;35899;50.352;19.390;2024-03-23T09:50:58;96545.98;;;17.06;70.03
50011;BME280;35899;50.352;19.390;2024-03-23T09:53:26;96535.42;;;17.52;67.77
50011;BME280;35899;50.352;19.390;2024-03-23T09:55:54;96536.75;;;17.85;66.10
50011;BME280;35899;50.352;19.390;2024-03-23T09:58:23;96520.98;;;18.00;65.79
50011;BME280;35899;50.352;19.390;2024-03-23T10:00:51;96513.10;;;18.25;63.84
50011;BME280;35899;50.352;19.390;2024-03-23T10:03:18;96518.77;;;18.49;62.47
50011;BME280;35899;50.352;19.390;2024-03-23T10:05:46;96507.51;;;18.76;61.48
50011;BME280;35899;50.352;19.390;2024-03-23T10:10:43;96504.95;;;19.38;61.54
50011;BME280;35899;50.352;19.390;2024-03-23T10:13:24;96502.30;;;19.33;58.70
50011;BME280;35899;50.352;19.390;2024-03-23T10:15:59;96494.13;;;19.23;59.12
50011;BME280;35899;50.352;19.390;2024-03-23T10:18:27;96485.90;;;19.43;59.09
50011;BME280;35899;50.352;19.390;2024-03-23T10:21:10;96475.27;;;19.97;58.36
50011;BME280;35899;50.352;19.390;2024-03-23T10:23:40;96471.34;;;20.43;55.24
50011;BME280;35899;50.352;19.390;2024-03-23T10:28:59;96459.77;;;21.34;54.77
50011;BME280;35899;50.352;19.390;2024-03-23T10:31:28;96453.73;;;21.98;54.67
50011;BME280;35899;50.352;19.390;2024-03-23T10:33:57;96452.77;;;22.49;52.33
50011;BME280;35899;50.352;19.390;2024-03-23T10:36:24;96452.21;;;22.83;49.75
50011;BME280;35899;50.352;19.390;2024-03-23T10:38:54;96451.72;;;22.89;48.98
50011;BME280;35899;50.352;19.390;2024-03-23T10:41:22;96450.05;;;22.78;49.31
50011;BME280;35899;50.352;19.390;2024-03-23T10:43:53;96443.53;;;22.47;47.67
50011;BME280;35899;50.352;19.390;2024-03-23T10:46:23;96436.38;;;22.65;47.28
50011;BME280;35899;50.352;19.390;2024-03-23T10:48:50;96432.23;;;23.07;46.73
50011;BME280;35899;50.352;19.390;2024-03-23T10:51:18;96425.19;;;23.60;46.37
50011;BME280;35899;50.352;19.390;2024-03-23T10:53:47;96413.06;;;24.09;45.22
50011;BME280;35899;50.352;19.390;2024-03-23T10:56:15;96406.67;;;24.37;42.64
50011;BME280;35899;50.352;19.390;2024-03-23T10:58:49;96403.50;;;24.62;42.27
50011;BME280;35899;50.352;19.390;2024-03-23T11:01:17;96399.44;;;25.01;41.37
50011;BME280;35899;50.352;19.390;2024-03-23T11:03:46;96392.64;;;25.26;40.52
50011;BME280;35899;50.352;19.390;2024-03-23T11:06:36;96390.16;;;25.71;40.63
50011;BME280;35899;50.352;19.390;2024-03-23T11:09:40;96384.80;;;25.79;37.95
50011;BME280;35899;50.352;19.390;2024-03-23T11:14:45;96379.23;;;25.65;37.92
50011;BME280;35899;50.352;19.390;2024-03-23T11:17:18;96373.02;;;26.43;37.11
50011;BME280;35899;50.352;19.390;2024-03-23T11:20:02;96369.91;;;26.94;36.18
50011;BME280;35899;50.352;19.390;2024-03-23T11:22:46;96359.14;;;27.45;35.07
50011;BME280;35899;50.352;19.390;2024-03-23T11:25:16;96348.98;;;27.99;35.75
50011;BME280;35899;50.352;19.390;2024-03-23T11:27:44;96340.58;;;28.53;34.90
50011;BME280;35899;50.352;19.390;2024-03-23T11:32:43;96321.66;;;29.46;33.79
50011;BME280;35899;50.352;19.390;2024-03-23T11:35:24;96308.02;;;29.83;32.63
50011;BME280;35899;50.352;19.390;2024-03-23T11:40:30;96290.03;;;29.86;30.29
50011;BME280;35899;50.352;19.390;2024-03-23T11:43:05;96277.19;;;30.24;31.65
50011;BME280;35899;50.352;19.390;2024-03-23T11:45:43;96256.64;;;30.78;30.39
50011;BME280;35899;50.352;19.390;2024-03-23T11:48:16;96255.91;;;31.16;29.03
50011;BME280;35899;50.352;19.390;2024-03-23T11:50:54;96253.05;;;31.10;28.59
50011;BME280;35899;50.352;19.390;2024-03-23T11:53:22;96246.19;;;31.18;27.50
50011;BME280;35899;50.352;19.390;2024-03-23T11:55:59;96239.96;;;31.26;27.43
50011;BME280;35899;50.352;19.390;2024-03-23T11:58:27;96232.09;;;31.30;27.07
50011;BME280;35899;50.352;19.390;2024-03-23T12:00:59;96236.41;;;31.45;26.79
50011;BME280;35899;50.352;19.390;2024-03-23T12:03:27;96231.07;;;31.52;25.81
50011;BME280;35899;50.352;19.390;2024-03-23T12:06:02;96229.73;;;31.50;26.00
50011;BME280;35899;50.352;19.390;2024-03-23T12:08:31;96216.20;;;31.81;25.82
50011;BME280;35899;50.352;19.390;2024-03-23T12:13:34;96207.28;;;32.16;26.61
50011;BME280;35899;50.352;19.390;2024-03-23T12:16:15;96209.42;;;32.72;26.59
50011;BME280;35899;50.352;19.390;2024-03-23T12:18:47;96201.00;;;32.53;26.96
50011;BME280;35899;50.352;19.390;2024-03-23T12:21:15;96188.05;;;32.52;26.38
50011;BME280;35899;50.352;19.390;2024-03-23T12:23:44;96178.64;;;32.54;26.42
50011;BME280;35899;50.352;19.390;2024-03-23T12:26:12;96167.75;;;33.01;25.85
50011;BME280;35899;50.352;19.390;2024-03-23T12:28:40;96164.95;;;33.02;25.73
50011;BME280;35899;50.352;19.390;2024-03-23T12:31:07;96162.48;;;33.24;25.79
50011;BME280;35899;50.352;19.390;2024-03-23T12:33:35;96159.23;;;33.57;24.40
50011;BME280;35899;50.352;19.390;2024-03-23T12:36:03;96156.08;;;33.96;25.24
50011;BME280;35899;50.352;19.390;2024-03-23T12:38:31;96155.71;;;34.57;24.55
50011;BME280;35899;50.352;19.390;2024-03-23T12:40:59;96136.34;;;34.47;24.49
50011;BME280;35899;50.352;19.390;2024-03-23T12:43:27;96133.16;;;34.37;24.03
50011;BME280;35899;50.352;19.390;2024-03-23T12:45:54;96121.02;;;34.66;24.20
50011;BME280;35899;50.352;19.390;2024-03-23T12:48:22;96118.88;;;34.90;23.92
50011;BME280;35899;50.352;19.390;2024-03-23T12:50:54;96116.01;;;34.95;21.93
50011;BME280;35899;50.352;19.390;2024-03-23T12:53:22;96111.73;;;34.74;22.62
50011;BME280;35899;50.352;19.390;2024-03-23T12:55:49;96099.17;;;34.83;22.47
50011;BME280;35899;50.352;19.390;2024-03-23T12:58:17;96094.88;;;35.10;23.01
50011;BME280;35899;50.352;19.390;2024-03-23T13:00:45;96086.89;;;35.06;22.17
50011;BME280;35899;50.352;19.390;2024-03-23T13:03:13;96086.36;;;34.95;22.10
50011;BME280;35899;50.352;19.390;2024-03-23T13:05:41;96081.75;;;34.90;22.01
50011;BME280;35899;50.352;19.390;2024-03-23T13:08:09;96071.57;;;34.83;22.17
50011;BME280;35899;50.352;19.390;2024-03-23T13:10:37;96067.09;;;35.10;22.75
50011;BME280;35899;50.352;19.390;2024-03-23T13:13:04;96058.77;;;35.39;22.28
50011;BME280;35899;50.352;19.390;2024-03-23T13:15:32;96053.55;;;35.72;22.43
50011;BME280;35899;50.352;19.390;2024-03-23T13:18:00;96058.93;;;35.50;22.45
50011;BME280;35899;50.352;19.390;2024-03-23T13:20:27;96054.35;;;34.46;23.72
50011;BME280;35899;50.352;19.390;2024-03-23T13:22:55;96043.36;;;33.01;23.32
50011;BME280;35899;50.352;19.390;2024-03-23T13:25:22;96046.33;;;30.99;23.36
50011;BME280;35899;50.352;19.390;2024-03-23T13:27:50;96052.24;;;30.80;23.88
50011;BME280;35899;50.352;19.390;2024-03-23T13:30:17;96046.58;;;31.99;23.27
50011;BME280;35899;50.352;19.390;2024-03-23T13:32:45;96033.31;;;32.30;21.77
50011;BME280;35899;50.352;19.390;2024-03-23T13:35:13;96032.10;;;31.38;22.50
50011;BME280;35899;50.352;19.390;2024-03-23T13:37:41;96041.10;;;29.52;23.74
50011;BME280;35899;50.352;19.390;2024-03-23T13:40:09;96043.91;;;27.95;24.98
50011;BME280;35899;50.352;19.390;2024-03-23T13:42:39;96048.13;;;26.46;25.44
50011;BME280;35899;50.352;19.390;2024-03-23T13:45:07;96048.42;;;25.02;26.51
50011;BME280;35899;50.352;19.390;2024-03-23T13:47:39;96050.63;;;23.88;27.29
50011;BME280;35899;50.352;19.390;2024-03-23T13:50:07;96047.04;;;22.82;27.93
50011;BME280;35899;50.352;19.390;2024-03-23T13:52:34;96051.61;;;21.93;28.97
50011;BME280;35899;50.352;19.390;2024-03-23T13:55:02;96061.98;;;21.20;30.04
50011;BME280;35899;50.352;19.390;2024-03-23T13:57:31;96085.05;;;20.62;30.97
50011;BME280;35899;50.352;19.390;2024-03-23T13:59:58;96102.88;;;20.18;31.90
50011;BME280;35899;50.352;19.390;2024-03-23T14:02:26;96193.52;;;19.82;34.33
50011;BME280;35899;50.352;19.390;2024-03-23T14:04:54;96243.80;;;18.74;42.36
50011;BME280;35899;50.352;19.390;2024-03-23T14:07:21;96262.59;;;17.38;48.48
50011;BME280;35899;50.352;19.390;2024-03-23T14:09:49;96286.16;;;16.12;55.14